Latest Weather Observations for Falls Creek

IDV60801

Issued at 2:05 pm EST Tuesday 2 September 2014 (issued every 30 minutes, with the page automatically refreshed every 10 minutes)

About weather observations | Map of weather stations | Latest weather observations for VIC | Other Formats
Station Details ID: 083084 Name: FALLS CREEK Lat: -36.87 Lon: 147.28 Height: 1765.0 m
Data from the previous 72 hours. | See also: Recent months at Falls Creek
Date/Time
EST
Temp
°C
App
Temp
°C
Dew
Point
Rel
Hum
%
Delta-T
°C
Wind Press
QNH
hPa
Press
MSL
hPa
Rain
since 9 am
mm
Dir
 
Spd
km/h
Gust
km/h
Spd
kts
Gust
kts
02/02:00pm -2.6 -15.2 -2.9 98 0.0 S 54 72 29 39 1010.4 1010.5 3.0
02/01:48pm -2.5 -14.7 -2.8 98 0.0 S 52 70 28 38 1010.7 1010.8 2.8
02/01:30pm -2.6 -14.9 -2.9 98 0.0 S 52 69 28 37 1010.5 1010.6 2.4
02/01:03pm -2.1 -11.8 -2.4 98 0.0 S 39 65 21 35 1010.6 1010.7 1.6
02/01:00pm -1.9 -10.8 -2.0 99 -0.1 S 35 50 19 27 1011.3 1011.4 1.4
02/12:44pm -1.7 -10.6 -2.0 98 0.0 S 35 56 19 30 1011.1 1011.2 1.0
02/12:30pm -1.8 -10.7 -2.2 97 0.1 S 35 46 19 25 1011.2 1011.3 1.0
02/12:00pm -2.2 -12.3 -2.6 97 0.0 S 41 61 22 33 1010.7 1010.8 1.0
02/11:58am -2.1 -11.4 -2.4 98 0.0 S 37 56 20 30 1010.7 1010.8 0.8
02/11:30am -2.0 -12.1 -2.7 95 0.2 S 41 54 22 29 1011.3 1011.4 0.6
02/11:10am -2.4 -13.0 -3.1 95 0.1 S 43 63 23 34 1010.8 1010.9 0.6
02/11:00am -2.1 -11.4 -2.2 99 -0.1 S 37 46 20 25 1011.4 1011.6 0.6
02/10:30am -2.2 -12.7 -2.6 97 0.0 S 43 54 23 29 1011.1 1011.2 0.4
02/10:00am -2.1 -10.1 -2.2 99 -0.1 S 30 41 16 22 1011.3 1011.4 0.0
02/09:44am -2.3 -11.3 -2.4 99 -0.1 S 35 54 19 29 1011.2 1011.3 0.0
02/09:30am -2.5 -11.9 -2.8 98 0.0 S 37 50 20 27 1010.7 1010.8 0.0
02/09:00am -2.6 -13.3 -2.9 98 0.0 S 44 57 24 31 1011.1 1011.2 6.2
02/08:30am -2.5 -11.9 -2.6 99 -0.1 S 37 50 20 27 1011.0 1011.1 6.2
02/08:26am -2.6 -11.2 -2.7 99 -0.1 S 33 50 18 27 1011.1 1011.2 6.2
02/08:00am -2.0 -8.5 -2.1 99 -0.1 S 22 32 12 17 1010.7 1010.8 6.2
02/07:30am -2.2 -9.1 -2.3 99 -0.1 S 24 30 13 16 1010.6 1010.7 6.2
02/07:00am -2.3 -12.0 -2.4 99 -0.1 S 39 50 21 27 1009.6 1009.7 6.2
02/06:35am -2.2 -10.6 -2.3 99 -0.1 S 32 50 17 27 1009.3 1009.3 6.2
02/06:30am -2.1 -10.5 -2.2 99 -0.1 S 32 44 17 24 1009.4 1009.5 6.2
02/06:00am -2.2 -11.1 -2.3 99 -0.1 S 35 50 19 27 1009.2 1009.2 6.2
02/05:30am -2.1 -9.7 -2.2 99 -0.1 S 28 44 15 24 1009.0 1009.1 6.2
02/05:00am -2.3 -11.6 -2.4 99 -0.1 S 37 48 20 26 1008.5 1008.5 6.2
02/04:30am -2.0 -9.6 -2.1 99 -0.1 SSE 28 35 15 19 1008.2 1008.2 6.2
02/04:00am -2.1 -10.5 -2.2 99 -0.1 S 32 44 17 24 1008.1 1008.1 6.2
02/03:30am -2.3 -12.8 -2.4 99 -0.1 S 43 54 23 29 1007.9 1007.9 6.2
02/03:00am -2.2 -12.7 -2.5 98 0.0 S 43 54 23 29 1008.0 1008.0 6.2
02/02:30am -2.0 -10.6 -2.6 96 0.1 S 33 41 18 22 1008.5 1008.5 6.2
02/02:00am -2.0 -10.4 -2.1 99 -0.1 S 32 44 17 24 1008.3 1008.3 6.2
02/01:30am -1.5 -9.4 -1.6 99 0.0 S 30 39 16 21 1008.7 1008.7 6.2
02/01:00am -0.9 -6.8 -1.0 99 0.0 S 20 26 11 14 1008.7 1008.7 6.2
02/12:30am -0.7 -6.0 -0.8 99 0.0 SW 17 20 9 11 1008.8 1008.8 6.2
02/12:00am -0.7 -4.5 -0.8 99 0.0 W 9 13 5 7 1008.7 1008.7 6.2
 
Date/Time
EST
Temp
°C
App
Temp
°C
Dew
Point
Rel
Hum
%
Delta-T
°C
Wind Press
QNH
hPa
Press
MSL
hPa
Rain
since 9 am
mm
Dir
 
Spd
km/h
Gust
km/h
Spd
kts
Gust
kts
01/11:30pm -0.6 -6.3 -0.7 99 0.0 W 19 26 10 14 1008.7 1008.7 6.2
01/11:00pm -0.6 -6.3 -0.7 99 0.0 WNW 19 26 10 14 1008.8 1008.8 6.2
01/10:30pm -0.4 -5.3 -0.5 99 0.0 W 15 22 8 12 1009.0 1009.1 6.2
01/10:00pm -0.3 -5.2 -0.4 99 0.0 WNW 15 22 8 12 1009.0 1009.1 6.2
01/09:30pm -0.2 -6.4 -0.3 99 0.0 NW 22 28 12 15 1008.8 1008.8 6.2
01/09:00pm 0.0 -6.6 -0.1 99 0.0 NNW 24 35 13 19 1008.8 1008.8 5.6
01/08:30pm 0.1 -7.2 0.1 100 0.0 NNW 28 41 15 22 1008.8 1008.8 4.8
01/08:00pm 0.6 -10.0 0.6 100 0.0 NNW 46 67 25 36 1007.9 1007.9 3.2
01/07:30pm 0.8 -9.4 0.7 99 0.0 NNW 44 65 24 35 1008.1 1008.1 2.8
01/07:00pm 0.7 -9.4 0.6 99 0.0 NNW 43 65 23 35 1008.1 1008.1 2.4
01/06:30pm 0.5 -9.6 0.4 99 0.0 NNW 43 61 23 33 1008.3 1008.3 1.0
01/06:00pm 0.5 -9.6 0.4 99 0.0 NW 43 70 23 38 1008.3 1008.3 0.2
01/05:30pm 0.8 -8.9 0.4 97 0.2 NW 41 61 22 33 1008.2 1008.2 0.0
01/05:02pm 1.6 -8.6 0.0 89 0.7 NW 43 61 23 33 1008.1 1008.1 0.0
01/05:00pm 1.6 -8.8 -0.2 88 0.7 NW 44 61 24 33 1008.0 1008.0 0.0
01/04:30pm 2.5 -8.2 0.4 86 0.9 NW 46 72 25 39 1008.1 1008.1 0.0
01/04:00pm 2.9 -9.3 0.1 82 1.2 NNW 54 83 29 45 1007.6 1007.6 0.0
01/03:30pm 3.1 -8.3 0.8 85 1.0 NNW 50 70 27 38 1007.1 1007.1 0.0
01/03:00pm 3.2 -10.2 1.3 87 0.8 NNW 61 80 33 43 1006.7 1006.6 0.0
01/02:30pm 3.7 -9.0 0.9 82 1.2 NNW 57 82 31 44 1006.7 1006.6 0.0
01/02:00pm 3.4 -9.1 0.8 83 1.1 NNW 56 80 30 43 1007.1 1007.1 0.0
01/01:30pm 3.7 -9.4 0.7 81 1.3 NNW 59 83 32 45 1007.4 1007.4 0.0
01/01:00pm 3.4 -10.1 0.8 83 1.1 NNW 61 85 33 46 1008.3 1008.3 0.0
01/12:30pm 3.7 -9.8 0.7 81 1.3 NNW 61 83 33 45 1008.9 1009.0 0.0
01/12:00pm 3.6 -8.1 1.0 83 1.1 NNW 52 72 28 39 1010.1 1010.2 0.0
01/11:30am 3.8 -8.9 0.8 81 1.3 NNW 57 80 31 43 1010.5 1010.6 0.0
01/11:00am 3.4 -8.0 0.8 83 1.1 NNW 50 72 27 39 1010.6 1010.7 0.0
01/10:30am 3.5 -6.4 1.4 86 0.9 NNW 43 61 23 33 1011.3 1011.4 0.0
01/10:00am 3.3 -6.6 1.5 88 0.8 NNW 43 63 23 34 1012.4 1012.6 0.0
01/09:36am 3.0 -7.6 1.1 87 0.8 NNW 46 65 25 35 1012.5 1014.6 0.0
01/09:30am 2.9 -8.1 1.0 87 0.8 NNW 48 63 26 34 1012.6 1014.7 0.0
01/09:00am 3.0 -6.7 0.7 85 1.0 N 41 61 22 33 1013.1 1015.2 0.0
01/08:30am 2.0 -6.1 0.7 91 0.6 NNW 33 52 18 28 1013.8 1015.9 0.0
01/08:00am 2.0 -6.0 0.7 91 0.6 NNW 32 43 17 23 1014.3 1016.4 0.0
01/07:30am 1.8 -6.3 0.8 93 0.4 NNW 33 43 18 23 1014.3 1016.4 0.0
01/07:00am 1.8 -6.1 1.1 95 0.3 NNW 32 43 17 23 1014.6 1016.8 0.0
01/06:30am 2.0 -5.6 0.7 91 0.6 NNW 30 43 16 23 1014.9 1017.1 0.0
01/06:00am 2.2 -4.7 0.3 87 0.8 NNW 26 35 14 19 1015.2 1017.4 0.0
01/05:30am 2.1 -4.4 0.0 86 0.9 NNW 24 30 13 16 1015.5 1017.7 0.0
01/05:00am 2.2 -4.4 -0.4 83 1.1 NNW 24 32 13 17 1015.5 1017.7 0.0
01/04:30am 1.9 -4.7 -0.2 86 0.9 NNW 24 30 13 16 1015.4 1017.5 0.0
01/04:00am 1.9 -4.7 -0.2 86 0.9 NNW 24 32 13 17 1015.5 1017.7 0.0
01/03:30am 2.2 -5.5 -0.2 84 1.0 NW 30 39 16 21 1015.7 1017.9 0.0
01/03:00am 2.3 -5.8 -0.3 83 1.1 NNW 32 37 17 20 1015.6 1017.8 0.0
01/02:30am 2.1 -4.9 -0.3 84 1.0 NW 26 33 14 18 1015.7 1017.9 0.0
01/02:00am 2.4 -5.0 -0.4 82 1.2 NW 28 33 15 18 1015.8 1018.0 0.0
01/01:30am 2.6 -4.7 0.0 83 1.1 NW 28 33 15 18 1015.9 1018.2 0.0
01/01:00am 2.8 -4.1 -0.1 81 1.2 NNW 26 33 14 18 1016.1 1018.3 0.0
01/12:30am 2.7 -4.2 0.4 85 1.0 NNW 26 32 14 17 1016.2 1018.4 0.0
01/12:00am 2.4 -4.3 1.5 94 0.4 NNW 26 33 14 18 1016.5 1018.8 0.0
 
Date/Time
EST
Temp
°C
App
Temp
°C
Dew
Point
Rel
Hum
%
Delta-T
°C
Wind Press
QNH
hPa
Press
MSL
hPa
Rain
since 9 am
mm
Dir
 
Spd
km/h
Gust
km/h
Spd
kts
Gust
kts
31/11:30pm 2.3 -4.6 2.3 100 0.0 NNW 28 35 15 19 1016.9 1019.2 0.0
31/11:00pm 2.2 -4.0 2.2 100 0.0 NNW 24 33 13 18 1017.0 1019.3 0.0
31/10:30pm 2.4 -3.8 2.4 100 0.0 NNW 24 32 13 17 1017.3 1019.5 0.0
31/10:00pm 2.4 -3.0 2.4 100 0.0 NNW 20 28 11 15 1017.7 1020.0 0.0
31/09:30pm 2.2 -3.6 2.2 100 0.0 NNW 22 30 12 16 1018.0 1020.3 0.0
31/09:00pm 2.2 -3.2 2.2 100 0.0 NNW 20 28 11 15 1018.2 1020.5 0.0
31/08:30pm 2.4 -2.4 2.4 100 0.0 NNW 17 24 9 13 1018.4 1020.8 0.0
31/08:00pm 2.6 -2.2 2.6 100 0.0 NNW 17 26 9 14 1018.6 1020.9 0.0
31/07:30pm 2.6 -2.2 2.5 99 0.0 NNW 17 24 9 13 1018.7 1021.0 0.0
31/07:00pm 2.8 -2.0 2.7 99 0.0 NNW 17 22 9 12 1018.6 1020.9 0.0
31/06:30pm 2.9 -1.5 2.8 99 0.0 NNW 15 20 8 11 1018.7 1021.0 0.0
31/06:00pm 3.1 -0.9 3.0 99 0.0 NNW 13 19 7 10 1018.4 1020.8 0.0
31/05:30pm 3.5 -0.4 3.2 98 0.1 NNW 13 20 7 11 1018.6 1020.9 0.0
31/05:00pm 4.1 0.1 3.1 93 0.5 NNW 13 19 7 10 1018.6 1020.9 0.0
31/04:30pm 4.8 0.8 3.1 89 0.8 NNW 13 17 7 9 1018.4 1020.8 0.0
31/04:00pm 5.0 1.0 2.7 85 1.1 NNW 13 17 7 9 1018.4 1020.8 0.0
31/03:30pm 5.5 1.1 2.5 81 1.4 NNW 15 20 8 11 1018.7 1021.0 0.0
31/03:00pm 6.6 2.5 2.5 75 1.9 NW 13 20 7 11 1018.7 1021.0 0.0
31/02:30pm 6.4 2.2 1.9 73 2.0 NNW 13 19 7 10 1018.9 1021.3 0.0
31/02:00pm 6.1 2.0 2.2 76 1.8 NNW 13 20 7 11 1019.2 1021.5 0.0
31/01:30pm 6.0 1.4 1.7 74 1.9 NNW 15 20 8 11 1019.6 1022.0 0.0
31/01:00pm 5.3 0.3 1.6 77 1.7 NNW 17 28 9 15 1019.8 1022.1 0.0
31/12:30pm 5.0 0.1 1.7 79 1.5 NNW 17 22 9 12 1020.1 1022.5 0.0
31/12:00pm 5.2 0.3 1.7 78 1.6 NNW 17 24 9 13 1020.3 1022.8 0.0
31/11:30am 5.0 -0.4 1.1 76 1.7 NNW 19 24 10 13 1020.6 1023.0 0.0
31/11:00am 5.0 -0.5 0.6 73 1.9 NNW 19 24 10 13 1020.9 1023.4 0.0
31/10:30am 4.5 -0.8 -0.5 70 2.1 NNW 17 24 9 13 1021.2 1023.6 0.0
31/10:00am 4.5 -0.5 -0.9 68 2.2 NNW 15 20 8 11 1021.4 1023.9 0.0
31/09:30am 4.2 -0.5 -1.6 66 2.4 NNW 13 22 7 12 1021.7 1024.1 0.0
31/09:00am 4.1 -0.5 -1.1 69 2.1 NW 13 19 7 10 1021.7 1024.1 0.0
31/08:30am 3.4 -1.7 -1.9 68 2.1 NNW 15 24 8 13 1021.8 1024.3 0.0
31/08:00am 3.0 -2.2 -2.7 66 2.2 NW 15 20 8 11 1021.5 1024.0 0.0
31/07:30am 2.1 -3.6 -4.0 64 2.4 NW 17 22 9 12 1021.4 1023.9 0.0
31/07:00am 2.1 -4.3 -5.1 59 2.7 NW 20 28 11 15 1021.1 1023.5 0.0
31/06:30am 1.7 -4.1 -5.0 61 2.5 NW 17 26 9 14 1020.9 1023.4 0.0
31/06:00am 1.5 -4.3 -4.6 64 2.3 NW 17 24 9 13 1020.7 1023.1 0.0
31/05:30am 1.5 -4.7 -5.2 61 2.5 NW 19 22 10 12 1020.6 1023.0 0.0
31/05:00am 1.6 -4.9 -5.5 59 2.6 NW 20 26 11 14 1020.5 1022.9 0.0
31/04:30am 1.7 -4.8 -6.1 56 2.9 NW 20 24 11 13 1020.5 1022.9 0.0
31/04:00am 1.7 -4.2 -5.7 58 2.7 NW 17 22 9 12 1020.5 1022.9 0.0
31/03:30am 2.0 -3.7 -3.7 66 2.3 NW 17 20 9 11 1020.8 1023.3 0.0
31/03:00am 2.3 -3.0 -3.4 66 2.2 NW 15 19 8 10 1020.9 1023.4 0.0
31/02:30am 2.1 -3.4 -2.2 73 1.7 NW 17 19 9 10 1021.3 1023.8 0.0
31/02:00am 2.1 -2.5 -1.0 80 1.3 NW 13 15 7 8 1021.8 1024.3 0.0
31/01:30am 2.1 -1.9 0.2 87 0.8 NW 11 11 6 6 1022.1 1024.6 0.0
31/01:00am 2.3 -1.8 0.0 85 1.0 WNW 11 13 6 7 1022.5 1025.0 0.0
31/12:30am 2.5 -2.1 -0.8 79 1.4 WNW 13 17 7 9 1022.8 1025.4 0.0
31/12:00am 2.6 -1.9 -0.5 80 1.3 WNW 13 15 7 8 1023.1 1025.6 0.0
 
Date/Time
EST
Temp
°C
App
Temp
°C
Dew
Point
Rel
Hum
%
Delta-T
°C
Wind Press
QNH
hPa
Press
MSL
hPa
Rain
since 9 am
mm
Dir
 
Spd
km/h
Gust
km/h
Spd
kts
Gust
kts
30/11:30pm 2.6 -1.5 -0.3 81 1.2 WNW 11 13 6 7 1023.1 1025.6 0.0
30/11:00pm 3.0 -0.1 0.2 82 1.2 NNW 6 7 3 4 1023.3 1025.9 0.0
30/10:30pm 2.8 -0.5 0.2 83 1.1 W 7 9 4 5 1023.4 1026.0 0.0
30/10:00pm 2.6 -1.0 0.7 87 0.8 W 9 13 5 7 1023.8 1026.4 0.0
30/09:30pm 2.9 -1.2 0.1 82 1.2 W 11 13 6 7 1023.9 1026.5 0.0
30/09:00pm 3.0 -0.3 -0.1 80 1.3 W 7 9 4 5 1024.0 1026.6 0.0
30/08:30pm 2.9 0.4 -0.9 76 1.6 NNW 2 6 1 3 1024.0 1026.6 0.0
30/08:00pm 2.8 -0.5 -1.5 73 1.7 WNW 6 7 3 4 1024.0 1026.6 0.0
30/07:30pm 3.0 0.4 0.9 86 0.9 N 4 6 2 3 1024.2 1026.7 0.0
30/07:00pm 2.9 -0.1 1.0 87 0.8 NW 6 7 3 4 1024.0 1026.6 0.0
30/06:30pm 3.2 0.1 1.1 86 0.9 NW 7 9 4 5 1023.9 1026.5 0.0
30/06:00pm 3.5 0.1 1.7 88 0.8 NW 9 11 5 6 1023.8 1026.4 0.0
30/05:30pm 4.5 1.3 1.0 78 1.5 NNW 7 11 4 6 1023.9 1026.5 0.0
30/05:00pm 5.6 2.4 1.0 72 2.0 NNW 7 13 4 7 1024.0 1026.6 0.0
30/04:30pm 6.8 3.2 0.5 64 2.8 WNW 9 15 5 8 1024.0 1026.6 0.0
30/04:00pm 7.6 3.5 -0.4 57 3.5 NW 11 17 6 9 1024.0 1026.6 0.0
30/03:30pm 7.8 3.9 -1.2 53 3.9 NW 9 13 5 7 1024.0 1026.6 0.0
30/03:00pm 8.4 4.3 -2.8 45 4.6 NW 9 15 5 8 1024.0 1026.6 0.0
30/02:30pm 8.1 4.0 -2.8 46 4.5 NW 9 15 5 8 1024.2 1026.7 0.0

Other Formats:

Comma delimited format used in spreadsheet applications
http://www.bom.gov.au/fwo/IDV60801/IDV60801.94903.axf

JavaScript Object Notation format (JSON) in row-major order
http://www.bom.gov.au/fwo/IDV60801/IDV60801.94903.json